createdAt,value
2019-05-20T00:01:50.653Z,19.17
2019-05-20T00:03:54.654Z,18.53
2019-05-20T00:05:58.767Z,19.17
2019-05-20T00:08:02.723Z,19.47
2019-05-20T00:10:07.326Z,18.90
2019-05-20T00:12:11.213Z,17.67
2019-05-20T00:14:15.163Z,18.57
2019-05-20T00:16:19.260Z,18.37
2019-05-20T00:18:23.171Z,16.47
2019-05-20T00:20:27.232Z,15.80
2019-05-20T00:22:31.078Z,17.70
2019-05-20T00:24:35.030Z,16.20
2019-05-20T00:26:38.913Z,15.53
2019-05-20T00:28:42.828Z,15.20
2019-05-20T00:30:46.863Z,14.60
2019-05-20T00:32:50.794Z,13.33
2019-05-20T00:34:54.720Z,14.27
2019-05-20T00:36:59.109Z,14.00
2019-05-20T00:39:31.226Z,14.70
2019-05-20T00:41:35.288Z,16.40
2019-05-20T00:43:39.123Z,15.63
2019-05-20T00:45:43.123Z,14.03
2019-05-20T00:47:47.123Z,13.80
2019-05-20T00:49:51.047Z,13.17
2019-05-20T00:51:55.012Z,13.13
2019-05-20T00:53:58.952Z,13.20
2019-05-20T00:56:03.108Z,12.53
2019-05-20T00:58:06.926Z,12.33
2019-05-20T01:00:11.039Z,12.63
2019-05-20T01:02:14.935Z,12.60
2019-05-20T01:04:18.763Z,13.40
2019-05-20T01:06:22.763Z,11.30
2019-05-20T01:08:26.980Z,10.40
2019-05-20T01:10:30.930Z,11.07
2019-05-20T01:12:34.943Z,11.10
2019-05-20T01:14:38.972Z,11.67
2019-05-20T01:16:43.192Z,11.10
2019-05-20T01:18:47.127Z,11.73
2019-05-20T01:20:52.863Z,10.83
2019-05-20T01:22:56.919Z,12.00
2019-05-20T01:25:00.769Z,10.93
2019-05-20T01:27:04.795Z,11.60
2019-05-20T01:29:08.711Z,10.97
2019-05-20T01:31:14.892Z,11.80
2019-05-20T01:33:31.924Z,12.07
2019-05-20T01:35:35.869Z,13.17
2019-05-20T01:37:39.845Z,12.00
2019-05-20T01:39:43.827Z,12.80
2019-05-20T01:41:47.965Z,12.50
2019-05-20T01:43:51.827Z,12.37
2019-05-20T01:45:55.759Z,12.80
2019-05-20T01:47:59.646Z,12.93
2019-05-20T01:50:03.831Z,12.77
2019-05-20T01:52:08.021Z,12.53
2019-05-20T01:54:11.861Z,12.67
2019-05-20T01:56:15.816Z,12.40
2019-05-20T01:58:19.811Z,13.07
2019-05-20T02:00:23.935Z,13.90
2019-05-20T02:02:27.948Z,13.63
2019-05-20T02:04:31.907Z,13.50
2019-05-20T02:06:35.775Z,13.50
2019-05-20T02:08:39.660Z,11.97
2019-05-20T02:10:43.704Z,11.13
2019-05-20T02:12:47.578Z,12.40
2019-05-20T02:14:57.699Z,10.93
2019-05-20T02:17:02.825Z,12.50
2019-05-20T02:19:06.958Z,12.23
2019-05-20T02:21:10.908Z,11.43
2019-05-20T02:23:15.540Z,12.03
2019-05-20T02:25:19.651Z,12.43
2019-05-20T02:27:23.681Z,11.50
2019-05-20T02:29:27.591Z,12.63
2019-05-20T02:31:31.537Z,12.47
2019-05-20T02:33:51.005Z,11.63
2019-05-20T02:35:41.140Z,11.20
2019-05-20T02:37:44.983Z,11.00
2019-05-20T02:39:48.972Z,11.13
2019-05-20T02:41:52.970Z,10.73
2019-05-20T02:43:56.959Z,12.17
2019-05-20T02:46:01.117Z,11.53
2019-05-20T02:48:05.313Z,11.00
2019-05-20T02:50:09.454Z,10.77
2019-05-20T02:52:13.280Z,11.53
2019-05-20T02:54:17.222Z,11.37
2019-05-20T02:56:21.120Z,11.70
2019-05-20T02:58:25.119Z,11.47
2019-05-20T03:00:29.112Z,11.83
2019-05-20T03:02:33.025Z,11.70
2019-05-20T03:04:36.950Z,11.33
2019-05-20T03:06:41.136Z,11.37
2019-05-20T03:08:45.061Z,9.70
2019-05-20T03:10:49.045Z,10.17
2019-05-20T03:12:54.216Z,9.20
2019-05-20T03:14:58.072Z,7.83
2019-05-20T03:17:01.934Z,8.20
2019-05-20T03:19:05.840Z,9.67
2019-05-20T03:21:09.691Z,8.80
2019-05-20T03:23:13.661Z,9.23
2019-05-20T03:25:17.716Z,11.20
2019-05-20T03:27:21.561Z,10.80
2019-05-20T03:29:25.609Z,10.50
2019-05-20T03:31:29.698Z,11.73
2019-05-20T03:33:33.646Z,10.27
2019-05-20T03:35:37.610Z,10.33
2019-05-20T03:37:41.496Z,10.77
2019-05-20T03:39:45.479Z,8.80
2019-05-20T03:41:49.312Z,8.93
2019-05-20T03:43:53.165Z,10.10
2019-05-20T03:45:57.063Z,9.13
2019-05-20T03:48:01.195Z,9.57
2019-05-20T03:50:05.523Z,10.57
2019-05-20T03:52:09.411Z,8.07
2019-05-20T03:54:13.250Z,10.60
2019-05-20T03:56:17.101Z,10.13
2019-05-20T03:58:21.039Z,9.80
2019-05-20T04:00:42.711Z,10.33
2019-05-20T04:02:46.546Z,10.53
2019-05-20T04:05:01.214Z,9.80
2019-05-20T04:06:56.053Z,9.33
2019-05-20T04:08:59.936Z,8.90
2019-05-20T04:11:03.808Z,10.90
2019-05-20T04:13:07.985Z,9.40
2019-05-20T04:15:11.960Z,7.70
2019-05-20T04:17:15.925Z,8.80
2019-05-20T04:19:19.852Z,15.93
2019-05-20T04:21:23.932Z,12.10
2019-05-20T04:23:27.993Z,9.70
2019-05-20T04:25:32.016Z,8.97
2019-05-20T04:27:35.957Z,10.00
2019-05-20T04:29:39.920Z,9.40
2019-05-20T04:31:45.225Z,9.20
2019-05-20T04:33:49.047Z,10.90
2019-05-20T04:35:52.897Z,10.70
2019-05-20T04:37:56.954Z,9.13
2019-05-20T04:40:00.932Z,9.23
2019-05-20T04:42:06.696Z,10.43
2019-05-20T04:44:10.800Z,10.03
2019-05-20T04:46:14.728Z,11.27
2019-05-20T04:48:18.768Z,10.90
2019-05-20T04:50:22.667Z,12.40
2019-05-20T04:52:26.791Z,13.00
2019-05-20T04:54:30.634Z,15.10
2019-05-20T04:56:34.766Z,12.73
2019-05-20T04:58:38.638Z,13.60
2019-05-20T05:00:57.692Z,13.27
2019-05-20T05:03:01.913Z,13.90
2019-05-20T05:05:06.668Z,12.17
2019-05-20T05:07:10.681Z,10.43
2019-05-20T05:09:15.692Z,9.50
2019-05-20T05:11:19.933Z,10.00
2019-05-20T05:13:24.207Z,9.83
2019-05-20T05:15:28.175Z,10.03
2019-05-20T05:17:32.265Z,10.20
2019-05-20T05:19:36.188Z,8.93
2019-05-20T05:21:40.123Z,9.00
2019-05-20T05:23:58.240Z,10.07
2019-05-20T05:25:50.076Z,8.93
2019-05-20T05:27:53.912Z,8.37
2019-05-20T05:29:57.967Z,8.80
2019-05-20T05:32:01.889Z,8.63
2019-05-20T05:34:06.028Z,7.23
2019-05-20T05:36:10.367Z,7.93
2019-05-20T05:38:14.303Z,7.60
2019-05-20T05:40:18.677Z,8.97
2019-05-20T05:42:22.551Z,9.20
2019-05-20T05:44:26.399Z,8.80
2019-05-20T05:46:30.312Z,8.40
2019-05-20T05:48:34.219Z,9.20
2019-05-20T05:50:38.180Z,8.03
2019-05-20T05:52:43.483Z,7.63
2019-05-20T05:54:47.499Z,7.30
2019-05-20T05:56:51.517Z,7.10
2019-05-20T05:58:55.606Z,9.97
2019-05-20T06:00:59.465Z,7.70
2019-05-20T06:03:03.580Z,7.60
2019-05-20T06:05:07.787Z,7.57
2019-05-20T06:07:11.704Z,8.00
2019-05-20T06:11:27.755Z,7.90
2019-05-20T06:13:31.723Z,7.07
2019-05-20T06:15:35.665Z,6.50
2019-05-20T06:17:39.731Z,6.60
2019-05-20T06:19:43.667Z,4.97
2019-05-20T06:21:47.556Z,7.70
2019-05-20T06:23:51.508Z,6.57
2019-05-20T06:25:55.440Z,7.37
2019-05-20T06:27:59.609Z,6.57
2019-05-20T06:30:04.007Z,6.73
2019-05-20T06:32:08.001Z,6.67
2019-05-20T06:34:11.904Z,7.97
2019-05-20T06:36:26.406Z,6.93
2019-05-20T06:38:41.651Z,5.80
2019-05-20T06:40:45.575Z,6.50
2019-05-20T06:42:49.719Z,6.50
2019-05-20T06:44:57.167Z,6.97
2019-05-20T06:46:59.424Z,6.37
2019-05-20T06:49:03.605Z,7.00
2019-05-20T06:51:07.583Z,6.30
2019-05-20T06:53:11.651Z,7.20
2019-05-20T06:55:15.878Z,6.83
2019-05-20T06:57:19.702Z,6.20
2019-05-20T06:59:23.590Z,6.00
2019-05-20T07:01:27.580Z,6.53
2019-05-20T07:03:31.680Z,6.40
2019-05-20T07:05:36.188Z,7.00
2019-05-20T07:07:40.060Z,7.17
2019-05-20T07:09:43.948Z,6.70
2019-05-20T07:11:52.614Z,8.97
2019-05-20T07:13:53.609Z,10.83
2019-05-20T07:15:57.735Z,7.80
2019-05-20T07:18:01.791Z,6.03
2019-05-20T07:20:06.017Z,5.83
2019-05-20T07:22:09.901Z,5.90
2019-05-20T07:24:13.723Z,6.00
2019-05-20T07:26:17.699Z,5.60
2019-05-20T07:28:21.609Z,6.57
2019-05-20T07:30:25.524Z,5.63
2019-05-20T07:32:29.433Z,6.40
2019-05-20T07:34:33.278Z,5.83
2019-05-20T07:36:37.107Z,5.40
2019-05-20T07:38:41.219Z,6.03
2019-05-20T07:40:45.067Z,6.27
2019-05-20T07:42:48.975Z,6.23
2019-05-20T07:44:52.883Z,5.70
2019-05-20T07:46:56.931Z,6.23
2019-05-20T07:49:01.101Z,6.27
2019-05-20T07:51:05.370Z,7.10
2019-05-20T07:53:11.999Z,6.50
2019-05-20T07:55:16.252Z,6.97
2019-05-20T07:57:22.280Z,6.87
2019-05-20T07:59:27.999Z,6.20
2019-05-20T08:01:32.008Z,6.97
2019-05-20T08:03:38.595Z,6.60
2019-05-20T08:05:41.589Z,6.93
2019-05-20T08:07:51.968Z,6.10
2019-05-20T08:09:51.164Z,6.03
2019-05-20T08:11:55.227Z,6.87
2019-05-20T08:13:59.269Z,6.60
2019-05-20T08:16:03.265Z,6.37
2019-05-20T08:18:07.465Z,6.37
2019-05-20T08:20:11.775Z,7.40
2019-05-20T08:22:15.760Z,6.90
2019-05-20T08:24:19.722Z,7.57
2019-05-20T08:26:23.737Z,9.00
2019-05-20T08:28:27.858Z,7.63
2019-05-20T08:30:34.634Z,7.20
2019-05-20T08:32:38.943Z,6.83
2019-05-20T08:34:42.876Z,6.87
2019-05-20T08:36:46.963Z,8.43
2019-05-20T08:38:50.887Z,7.80
2019-05-20T08:40:54.808Z,6.97
2019-05-20T08:42:58.891Z,7.33
2019-05-20T08:45:03.554Z,8.37
2019-05-20T08:47:07.792Z,7.40
2019-05-20T08:49:11.912Z,6.90
2019-05-20T08:51:15.981Z,6.97
2019-05-20T08:53:19.973Z,7.50
2019-05-20T08:55:23.875Z,7.23
2019-05-20T08:57:28.052Z,9.40
2019-05-20T08:59:31.883Z,8.23
2019-05-20T09:01:35.847Z,7.10
2019-05-20T09:03:39.760Z,6.53
2019-05-20T09:05:43.685Z,6.60
2019-05-20T09:08:01.674Z,6.97
2019-05-20T09:09:53.602Z,6.83
2019-05-20T09:11:57.575Z,7.30
2019-05-20T09:14:01.591Z,7.10
2019-05-20T09:16:08.305Z,7.40
2019-05-20T09:18:15.399Z,6.97
2019-05-20T09:20:20.340Z,7.70
2019-05-20T09:22:24.323Z,7.13
2019-05-20T09:24:28.825Z,6.70
2019-05-20T09:26:32.687Z,6.73
2019-05-20T09:28:36.567Z,6.73
2019-05-20T09:30:40.566Z,6.90
2019-05-20T09:32:44.571Z,8.00
2019-05-20T09:34:48.680Z,7.93
2019-05-20T09:36:52.738Z,6.67
2019-05-20T09:38:56.563Z,6.93
2019-05-20T09:41:00.581Z,7.27
2019-05-20T09:43:04.465Z,6.20
2019-05-20T09:45:08.883Z,8.03
2019-05-20T09:47:12.911Z,8.37
2019-05-20T09:49:16.911Z,6.73
2019-05-20T09:51:20.820Z,7.13
2019-05-20T09:53:24.745Z,7.57
2019-05-20T09:55:28.622Z,6.60
2019-05-20T09:57:32.574Z,7.53
2019-05-20T09:59:43.155Z,7.70
2019-05-20T10:01:42.368Z,7.20
2019-05-20T10:03:46.313Z,7.77
2019-05-20T10:05:50.248Z,7.40
2019-05-20T10:07:54.416Z,5.40
2019-05-20T10:09:58.235Z,7.40
2019-05-20T10:12:02.498Z,6.53
2019-05-20T10:14:06.471Z,8.87
2019-05-20T10:16:10.497Z,7.93
2019-05-20T10:18:14.508Z,7.60
2019-05-20T10:20:18.621Z,7.00
2019-05-20T10:22:22.543Z,6.97
2019-05-20T10:24:26.463Z,8.33
2019-05-20T10:26:30.487Z,7.20
2019-05-20T10:28:34.381Z,7.07
2019-05-20T10:30:38.382Z,8.23
2019-05-20T10:32:42.403Z,7.67
2019-05-20T10:34:46.257Z,7.50
2019-05-20T10:36:50.075Z,7.47
2019-05-20T10:38:58.966Z,8.40
2019-05-20T10:40:59.471Z,8.83
2019-05-20T10:43:03.316Z,9.10
2019-05-20T10:45:07.589Z,8.00
2019-05-20T10:47:11.411Z,8.23
2019-05-20T10:49:15.349Z,7.60
2019-05-20T10:51:19.306Z,6.73
2019-05-20T10:53:23.524Z,7.10
2019-05-20T10:55:27.507Z,8.43
2019-05-20T10:57:31.956Z,8.20
2019-05-20T10:59:35.800Z,7.03
2019-05-20T11:01:39.816Z,6.87
2019-05-20T11:03:43.737Z,8.10
2019-05-20T11:05:47.591Z,6.40
2019-05-20T11:07:51.642Z,7.30
2019-05-20T11:09:55.787Z,7.93
2019-05-20T11:11:59.727Z,7.67
2019-05-20T11:14:04.113Z,7.20
2019-05-20T11:16:08.072Z,5.90
2019-05-20T11:18:11.975Z,7.10
2019-05-20T11:20:16.779Z,6.23
2019-05-20T11:22:20.819Z,7.23
2019-05-20T11:24:24.733Z,6.50
2019-05-20T11:26:28.734Z,6.27
2019-05-20T11:28:32.579Z,5.83
2019-05-20T11:30:36.607Z,6.23
2019-05-20T11:32:40.615Z,5.20
2019-05-20T11:34:44.520Z,7.10
2019-05-20T11:36:48.436Z,6.57
2019-05-20T11:38:52.499Z,5.70
2019-05-20T11:40:56.433Z,5.93
2019-05-20T11:43:00.346Z,5.70
2019-05-20T11:45:04.558Z,6.50
2019-05-20T11:47:08.591Z,6.13
2019-05-20T11:49:12.442Z,6.53
2019-05-20T11:51:16.465Z,6.93
2019-05-20T11:53:20.531Z,6.97
2019-05-20T11:55:24.606Z,6.00
2019-05-20T11:57:28.572Z,6.20
2019-05-20T11:59:32.559Z,5.50
2019-05-20T12:01:36.533Z,5.80
2019-05-20T12:03:40.392Z,5.80
2019-05-20T12:05:44.416Z,7.13
2019-05-20T12:07:48.498Z,10.17
2019-05-20T12:09:52.443Z,5.27
2019-05-20T12:11:57.682Z,5.23
2019-05-20T12:14:01.620Z,4.50
2019-05-20T12:16:05.447Z,5.70
2019-05-20T12:18:09.715Z,6.10
2019-05-20T12:20:14.815Z,5.73
2019-05-20T12:22:18.742Z,6.73
2019-05-20T12:24:22.772Z,6.57
2019-05-20T12:26:27.978Z,6.47
2019-05-20T12:28:31.801Z,6.53
2019-05-20T12:30:35.822Z,6.53
2019-05-20T12:32:40.013Z,6.57
2019-05-20T12:34:43.974Z,6.77
2019-05-20T12:36:47.943Z,6.60
2019-05-20T12:38:51.966Z,6.90
2019-05-20T12:40:55.820Z,6.80
2019-05-20T12:42:59.680Z,6.50
2019-05-20T12:45:03.725Z,6.43
2019-05-20T12:47:07.577Z,7.20
2019-05-20T12:49:11.790Z,7.47
2019-05-20T12:51:15.822Z,7.40
2019-05-20T12:53:19.732Z,6.70
2019-05-20T12:55:23.626Z,7.80
2019-05-20T12:57:27.512Z,6.87
2019-05-20T12:59:31.355Z,7.80
2019-05-20T13:01:35.185Z,7.10
2019-05-20T13:03:39.115Z,7.30
2019-05-20T13:05:43.186Z,8.60
2019-05-20T13:07:47.238Z,6.60
2019-05-20T13:09:51.441Z,7.10
2019-05-20T13:11:55.361Z,7.47
2019-05-20T13:13:59.280Z,7.60
2019-05-20T13:16:03.852Z,7.77
2019-05-20T13:18:07.884Z,7.50
2019-05-20T13:20:12.279Z,7.97
2019-05-20T13:22:16.236Z,8.10
2019-05-20T13:24:20.128Z,8.47
2019-05-20T13:26:25.320Z,8.60
2019-05-20T13:28:29.438Z,8.63
2019-05-20T13:30:33.396Z,7.83
2019-05-20T13:32:37.338Z,7.27
2019-05-20T13:34:41.458Z,7.20
2019-05-20T13:36:45.917Z,8.17
2019-05-20T13:38:49.743Z,7.03
2019-05-20T13:40:53.928Z,6.80
2019-05-20T13:42:58.048Z,7.90
2019-05-20T13:45:02.193Z,8.03
2019-05-20T13:47:06.290Z,8.20
2019-05-20T13:49:10.859Z,7.77
2019-05-20T13:51:14.736Z,7.33
2019-05-20T13:53:18.580Z,7.73
2019-05-20T13:55:22.635Z,7.63
2019-05-20T13:57:26.468Z,7.20
2019-05-20T13:59:31.595Z,8.27
2019-05-20T14:01:35.688Z,6.90
2019-05-20T14:03:39.531Z,7.33
2019-05-20T14:05:43.560Z,8.20
2019-05-20T14:07:50.331Z,7.40
2019-05-20T14:09:54.317Z,8.67
2019-05-20T14:11:58.175Z,7.83
2019-05-20T14:14:02.044Z,9.20
2019-05-20T14:16:05.973Z,7.10
2019-05-20T14:18:09.928Z,7.53
2019-05-20T14:20:15.560Z,7.93
2019-05-20T14:22:19.640Z,6.77
2019-05-20T14:24:23.591Z,7.20
2019-05-20T14:26:27.695Z,6.03
2019-05-20T14:28:32.030Z,6.67
2019-05-20T14:30:36.079Z,7.13
2019-05-20T14:32:40.068Z,6.83
2019-05-20T14:34:43.990Z,7.33
2019-05-20T14:36:52.462Z,7.60
2019-05-20T14:38:53.599Z,8.00
2019-05-20T14:40:57.617Z,7.80
2019-05-20T14:43:01.560Z,7.30
2019-05-20T14:45:06.086Z,7.20
2019-05-20T14:47:09.928Z,7.17
2019-05-20T14:49:13.970Z,8.20
2019-05-20T14:51:17.943Z,9.40
2019-05-20T14:53:21.796Z,7.13
2019-05-20T14:55:25.925Z,7.07
2019-05-20T14:57:30.433Z,7.30
2019-05-20T14:59:34.339Z,7.40
2019-05-20T15:01:38.350Z,8.07
2019-05-20T15:03:42.540Z,8.00
2019-05-20T15:05:46.466Z,8.60
2019-05-20T15:07:50.530Z,6.40
2019-05-20T15:09:54.417Z,7.83
2019-05-20T15:11:58.586Z,7.60
2019-05-20T15:14:02.781Z,7.43
2019-05-20T15:16:06.652Z,8.80
2019-05-20T15:18:10.620Z,7.80
2019-05-20T15:20:14.831Z,8.50
2019-05-20T15:22:18.798Z,8.43
2019-05-20T15:24:22.886Z,8.00
2019-05-20T15:26:26.784Z,8.07
2019-05-20T15:28:30.792Z,10.47
2019-05-20T15:30:34.883Z,9.13
2019-05-20T15:32:38.875Z,10.07
2019-05-20T15:34:42.813Z,9.33
2019-05-20T15:36:47.008Z,10.23
2019-05-20T15:38:51.031Z,10.37
2019-05-20T15:40:55.069Z,9.63
2019-05-20T15:42:59.139Z,8.40
2019-05-20T15:45:03.195Z,9.30
2019-05-20T15:47:07.149Z,9.77
2019-05-20T15:49:11.237Z,9.63
2019-05-20T15:51:15.180Z,10.07
2019-05-20T15:53:19.131Z,10.10
2019-05-20T15:55:23.122Z,9.07
2019-05-20T15:57:26.954Z,8.97
2019-05-20T15:59:44.779Z,9.70
2019-05-20T16:01:36.475Z,10.10
2019-05-20T16:03:40.346Z,7.17
2019-05-20T16:05:44.398Z,9.83
2019-05-20T16:07:48.420Z,9.10
2019-05-20T16:09:52.492Z,8.00
2019-05-20T16:11:56.447Z,8.63
2019-05-20T16:14:00.331Z,9.27
2019-05-20T16:16:04.368Z,9.50
2019-05-20T16:18:08.211Z,8.27
2019-05-20T16:20:12.499Z,7.90
2019-05-20T16:22:16.457Z,9.70
2019-05-20T16:24:20.307Z,7.80
2019-05-20T16:26:24.241Z,9.13
2019-05-20T16:28:28.291Z,7.37
2019-05-20T16:30:32.140Z,8.00
2019-05-20T16:32:36.190Z,8.07
2019-05-20T16:34:40.084Z,7.23
2019-05-20T16:36:43.935Z,7.30
2019-05-20T16:38:47.794Z,8.10
2019-05-20T16:40:51.636Z,7.60
2019-05-20T16:42:55.702Z,7.60
2019-05-20T16:44:59.586Z,7.40
2019-05-20T16:47:03.411Z,7.07
2019-05-20T16:49:07.620Z,7.90
2019-05-20T16:51:11.548Z,9.90
2019-05-20T16:53:15.388Z,8.93
2019-05-20T16:55:19.483Z,8.13
2019-05-20T16:57:23.370Z,9.13
2019-05-20T16:59:27.292Z,8.07
2019-05-20T17:01:45.325Z,8.47
2019-05-20T17:03:36.977Z,7.83
2019-05-20T17:05:40.891Z,7.20
2019-05-20T17:07:44.855Z,7.90
2019-05-20T17:09:48.707Z,8.60
2019-05-20T17:11:52.688Z,7.73
2019-05-20T17:13:56.635Z,8.73
2019-05-20T17:16:00.561Z,7.90
2019-05-20T17:18:04.641Z,7.23
2019-05-20T17:20:09.157Z,6.60
2019-05-20T17:22:13.036Z,6.50
2019-05-20T17:24:17.010Z,6.20
2019-05-20T17:26:21.042Z,7.30
2019-05-20T17:28:24.935Z,6.50
2019-05-20T17:30:28.992Z,7.73
2019-05-20T17:32:32.986Z,6.00
2019-05-20T17:34:37.199Z,6.63
2019-05-20T17:36:41.343Z,6.10
2019-05-20T17:38:45.243Z,7.30
2019-05-20T17:40:49.651Z,6.40
2019-05-20T17:42:53.738Z,6.33
2019-05-20T17:44:57.655Z,7.27
2019-05-20T17:47:01.566Z,7.37
2019-05-20T17:49:05.868Z,7.07
2019-05-20T17:51:10.072Z,8.30
2019-05-20T17:53:14.072Z,7.17
2019-05-20T17:55:18.349Z,7.13
2019-05-20T17:57:22.283Z,6.73
2019-05-20T17:59:26.184Z,6.20
2019-05-20T18:01:30.152Z,6.20
2019-05-20T18:03:34.156Z,6.40
2019-05-20T18:05:38.112Z,6.23
2019-05-20T18:07:42.081Z,7.30
2019-05-20T18:09:48.780Z,10.03
2019-05-20T18:11:52.637Z,6.47
2019-05-20T18:13:56.611Z,6.30
2019-05-20T18:16:00.541Z,6.40
2019-05-20T18:18:04.557Z,7.00
2019-05-20T18:20:08.844Z,8.03
2019-05-20T18:22:12.914Z,6.20
2019-05-20T18:24:16.871Z,7.70
2019-05-20T18:26:20.912Z,7.80
2019-05-20T18:28:24.899Z,6.73
2019-05-20T18:30:28.959Z,7.13
2019-05-20T18:32:32.904Z,6.73
2019-05-20T18:34:36.775Z,6.63
2019-05-20T18:36:40.712Z,7.40
2019-05-20T18:38:44.588Z,6.73
2019-05-20T18:40:48.443Z,7.30
2019-05-20T18:42:52.397Z,7.70
2019-05-20T18:44:56.327Z,6.57
2019-05-20T18:47:00.363Z,7.00
2019-05-20T18:49:04.250Z,6.10
2019-05-20T18:51:08.444Z,9.50
2019-05-20T18:53:12.366Z,7.77
2019-05-20T18:55:16.394Z,7.10
2019-05-20T18:57:20.347Z,7.30
2019-05-20T18:59:24.267Z,7.80
2019-05-20T19:01:28.168Z,7.33
2019-05-20T19:03:32.859Z,8.17
2019-05-20T19:05:37.470Z,8.20
2019-05-20T19:07:41.536Z,8.13
2019-05-20T19:09:45.515Z,8.53
2019-05-20T19:11:49.376Z,8.70
2019-05-20T19:13:53.321Z,7.87
2019-05-20T19:15:57.311Z,7.20
2019-05-20T19:18:01.333Z,7.23
2019-05-20T19:20:05.997Z,7.00
2019-05-20T19:22:09.971Z,7.37
2019-05-20T19:24:16.165Z,8.20
2019-05-20T19:26:24.799Z,8.30
2019-05-20T19:28:26.512Z,7.90
2019-05-20T19:30:30.572Z,8.40
2019-05-20T19:32:34.685Z,7.73
2019-05-20T19:34:38.896Z,7.30
2019-05-20T19:36:42.819Z,8.80
2019-05-20T19:38:46.903Z,8.33
2019-05-20T19:40:50.815Z,8.17
2019-05-20T19:42:54.892Z,7.23
2019-05-20T19:44:58.760Z,8.57
2019-05-20T19:47:02.671Z,7.93
2019-05-20T19:49:06.540Z,8.07
2019-05-20T19:51:10.531Z,8.20
2019-05-20T19:53:14.501Z,8.00
2019-05-20T19:55:19.251Z,11.27
2019-05-20T19:57:23.429Z,8.60
2019-05-20T19:59:27.523Z,7.63
2019-05-20T20:01:31.700Z,8.07
2019-05-20T20:03:35.634Z,7.80
2019-05-20T20:05:39.762Z,7.10
2019-05-20T20:07:43.743Z,7.90
2019-05-20T20:09:47.611Z,6.97
2019-05-20T20:11:51.456Z,7.33
2019-05-20T20:13:55.415Z,8.43
2019-05-20T20:15:59.271Z,6.93
2019-05-20T20:18:03.267Z,11.47
2019-05-20T20:20:07.504Z,8.97
2019-05-20T20:22:11.390Z,6.50
2019-05-20T20:24:15.244Z,6.37
2019-05-20T20:26:19.404Z,7.13
2019-05-20T20:28:23.632Z,6.50
2019-05-20T20:30:27.500Z,5.43
2019-05-20T20:32:38.026Z,5.73
2019-05-20T20:34:37.165Z,5.13
2019-05-20T20:36:41.181Z,5.73
2019-05-20T20:38:45.156Z,5.33
2019-05-20T20:40:51.448Z,6.00
2019-05-20T20:42:55.421Z,4.77
2019-05-20T20:44:59.667Z,5.80
2019-05-20T20:47:03.599Z,4.87
2019-05-20T20:49:07.555Z,5.30
2019-05-20T20:51:11.612Z,5.00
2019-05-20T20:53:15.449Z,5.33
2019-05-20T20:55:19.284Z,5.13
2019-05-20T20:57:23.351Z,5.03
2019-05-20T20:59:28.463Z,4.63
2019-05-20T21:01:32.432Z,4.67
2019-05-20T21:03:36.324Z,5.33
2019-05-20T21:05:40.259Z,5.00
2019-05-20T21:07:44.119Z,4.60
2019-05-20T21:09:48.003Z,4.80
2019-05-20T21:11:51.897Z,5.10
2019-05-20T21:13:55.823Z,5.20
2019-05-20T21:15:59.679Z,4.50
2019-05-20T21:18:03.685Z,5.27
2019-05-20T21:20:07.832Z,4.83
2019-05-20T21:22:12.167Z,5.20
2019-05-20T21:24:16.004Z,4.80
2019-05-20T21:26:20.075Z,5.20
2019-05-20T21:28:24.000Z,4.77
2019-05-20T21:30:28.003Z,5.40
2019-05-20T21:32:32.134Z,5.30
2019-05-20T21:34:35.996Z,4.73
2019-05-20T21:36:47.616Z,4.53
2019-05-20T21:38:45.884Z,5.00
2019-05-20T21:40:49.743Z,4.40
2019-05-20T21:42:53.591Z,4.53
2019-05-20T21:44:57.600Z,4.03
2019-05-20T21:47:01.431Z,4.93
2019-05-20T21:49:05.440Z,5.53
2019-05-20T21:51:09.445Z,5.07
2019-05-20T21:53:13.541Z,5.23
2019-05-20T21:55:17.599Z,5.10
2019-05-20T21:57:21.664Z,5.23
2019-05-20T21:59:25.516Z,4.90
2019-05-20T22:01:29.959Z,4.40
2019-05-20T22:03:33.999Z,5.00
2019-05-20T22:05:37.903Z,5.03
2019-05-20T22:07:42.002Z,4.83
2019-05-20T22:09:47.531Z,4.40
2019-05-20T22:11:51.551Z,5.37
2019-05-20T22:13:55.644Z,4.67
2019-05-20T22:15:59.487Z,5.40
2019-05-20T22:18:06.490Z,4.23
2019-05-20T22:20:11.113Z,4.17
2019-05-20T22:22:30.014Z,4.80
2019-05-20T22:24:36.444Z,3.90
2019-05-20T22:26:40.461Z,4.57
2019-05-20T22:28:44.537Z,4.63
2019-05-20T22:30:49.072Z,3.60
2019-05-20T22:32:59.035Z,3.53
2019-05-20T22:35:03.180Z,4.27
2019-05-20T22:37:07.302Z,4.17
2019-05-20T22:39:11.375Z,3.30
2019-05-20T22:41:27.352Z,4.40
2019-05-20T22:43:34.758Z,4.13
2019-05-20T22:45:44.648Z,4.53
2019-05-20T22:47:48.735Z,4.23
2019-05-20T22:49:52.835Z,3.83
2019-05-20T22:51:57.017Z,2.90
2019-05-20T22:54:01.175Z,3.80
2019-05-20T22:56:10.951Z,4.10
2019-05-20T22:58:21.135Z,3.60
2019-05-20T23:00:31.662Z,4.03
2019-05-20T23:02:43.201Z,5.20
2019-05-20T23:04:53.236Z,4.00
2019-05-20T23:06:58.256Z,4.63
2019-05-20T23:09:02.445Z,4.47
2019-05-20T23:11:14.136Z,4.67
2019-05-20T23:13:18.243Z,5.30
2019-05-20T23:15:22.437Z,4.70
2019-05-20T23:17:26.560Z,3.87
2019-05-20T23:19:30.885Z,3.20
2019-05-20T23:21:35.059Z,3.60
2019-05-20T23:23:42.335Z,3.50
2019-05-20T23:25:46.599Z,4.17
2019-05-20T23:27:50.764Z,4.33
2019-05-20T23:29:54.869Z,3.50
2019-05-20T23:32:01.932Z,3.80
2019-05-20T23:34:12.879Z,3.80
2019-05-20T23:36:14.434Z,3.93
2019-05-20T23:38:18.683Z,3.50
2019-05-20T23:40:22.743Z,4.80
2019-05-20T23:42:29.786Z,3.60
2019-05-20T23:44:33.893Z,4.60
2019-05-20T23:46:51.239Z,4.30
2019-05-20T23:48:55.331Z,3.40
2019-05-20T23:50:59.484Z,4.03
2019-05-20T23:53:08.273Z,4.17
2019-05-20T23:55:12.959Z,3.70
2019-05-20T23:57:17.223Z,4.97
2019-05-20T23:59:21.427Z,3.43
